• Join FlightAware (Why Join?)
  • Login
  • US Flag 
08:38AM EDT


 

Airport Tracker/Info


-or-


 

Live Flight TrackerFlight Track Log ✈ FLG4081 ✈ 26-Apr-2013 ✈ KDTW - KAZO

Flight Track Log - Related Links

Times and Time Zones

All times are in EDT time to prevent confusion due to time zone crossing. See the FLG4081 flight status page for this flight to view local times or setup timezone preferences in your user account.

Time Position Orientation Groundspeed Altitude Reporting Facility
EDT Latitude Longitude Course Direction KTS MPH feet Rate Location/Type
10:01PM 42.2017 -83.3583 275° West 157 181 1,300  Level Cleveland Center
10:01PM 42.1989 -83.3861 262° West 168 193 2,900 1,440 Climbing Cleveland Center
10:03PM 42.2128 -83.4906 280° West 257 296 4,000 780 Climbing Cleveland Center
10:04PM 42.2242 -83.7476 275° West  Level FlightAware Approximate
10:04PM 42.2208 -83.5917 276° West 251 289 4,800  Level Cleveland Center
10:05PM 42.2308 -83.8475 275° West  Level FlightAware Approximate
10:05PM 42.2286 -83.6903 276° West 261 300 8,000  Level Cleveland Center
10:05PM 42.2328 -83.7578 275° West 268 308 9,800 420 Climbing Cleveland Center
10:06PM 42.2372 -83.9474 275° West  Level FlightAware Approximate
10:07PM 42.2390 -83.8964 274° West  Level FlightAware Approximate
10:09PM 42.2650 -84.2169 264° West 339 390 10,000  Level Chicago Center
10:10PM 42.2625 -84.3444 269° West 340 391 10,000  Level Chicago Center
10:11PM 42.2597 -84.4703 268° West 338 389 10,000  Level Chicago Center
10:12PM 42.2583 -84.5969 269° West 338 389 10,000  Level Chicago Center
10:13PM 42.2553 -84.7467 268° West 335 386 10,000  Level Chicago Center
10:14PM 42.2500 -84.7544 270° West  Level FlightAware Approximate
10:14PM 42.2597 -84.8742 273° West 344 396 10,000  Level Chicago Center
10:15PM 42.2464 -84.8768 264° West  Level FlightAware Approximate
10:15PM 42.2742 -84.9797 281° West 302 348 9,600  Level Chicago Center
10:16PM 42.2897 -85.0714 283° West 260 299 7,900 -1,800 Descending Chicago Center
10:18PM 42.3031 -85.1650 281° West 254 292 6,000 -1,920 Descending Chicago Center
10:19PM 42.3153 -85.2597 280° West 256 295 4,000 -1,680 Descending Chicago Center
10:20PM 42.3292 -85.3450 282° West 242 278 2,600 -780 Descending Chicago Center
10:21PM 42.3436 -85.4158 285° West 210 242 2,500 -60 Descending Chicago Center
10:22PM 42.3544 -85.4772 283° West 179 206 2,500  Level Chicago Center
10:23PM 42.3394 -85.5333 250° West 167 192 2,500  Level Chicago Center